createdAt,value
2022-11-30T00:01:21.252Z,20.50
2022-11-30T00:03:54.640Z,21.38
2022-11-30T00:06:24.206Z,21.67
2022-11-30T00:08:55.825Z,23.13
2022-11-30T00:11:26.491Z,22.98
2022-11-30T00:13:54.901Z,22.52
2022-11-30T00:16:25.582Z,22.08
2022-11-30T00:18:56.943Z,22.85
2022-11-30T00:21:29.190Z,23.80
2022-11-30T00:23:58.652Z,23.27
2022-11-30T00:26:27.859Z,22.73
2022-11-30T00:28:56.945Z,23.00
2022-11-30T00:31:27.016Z,23.35
2022-11-30T00:33:55.851Z,22.35
2022-11-30T00:36:25.618Z,21.73
2022-11-30T00:38:54.270Z,23.05
2022-11-30T00:41:24.058Z,22.60
2022-11-30T00:43:54.194Z,22.52
2022-11-30T00:46:22.771Z,23.05
2022-11-30T00:48:55.559Z,23.55
2022-11-30T00:51:24.661Z,23.95
2022-11-30T00:53:53.740Z,25.17
2022-11-30T00:56:24.955Z,23.85
2022-11-30T00:58:54.418Z,24.40
2022-11-30T01:01:24.775Z,26.40
2022-11-30T01:03:55.031Z,25.10
2022-11-30T01:06:25.212Z,26.38
2022-11-30T01:08:54.742Z,25.30
2022-11-30T01:11:26.826Z,24.77
2022-11-30T01:13:57.293Z,25.67
2022-11-30T01:16:31.588Z,24.38
2022-11-30T01:19:02.385Z,23.63
2022-11-30T01:21:31.410Z,23.58
2022-11-30T01:24:00.412Z,25.30
2022-11-30T01:26:29.866Z,24.40
2022-11-30T01:29:00.550Z,24.52
2022-11-30T01:31:30.524Z,25.65
2022-11-30T01:34:05.046Z,26.02
2022-11-30T01:36:34.346Z,26.65
2022-11-30T01:39:03.912Z,25.88
2022-11-30T01:41:34.402Z,23.67
2022-11-30T01:44:52.532Z,23.35
2022-11-30T01:47:27.579Z,24.77
2022-11-30T01:50:04.326Z,25.80
2022-11-30T01:52:38.396Z,26.13
2022-11-30T01:55:19.650Z,26.05
2022-11-30T01:57:54.884Z,27.50
2022-11-30T02:00:25.231Z,25.88
2022-11-30T02:03:02.679Z,26.13
2022-11-30T02:05:37.217Z,25.15
2022-11-30T02:08:10.925Z,28.20
2022-11-30T02:10:44.014Z,24.67
2022-11-30T02:13:48.154Z,24.35
2022-11-30T02:16:28.628Z,24.67
2022-11-30T02:19:15.461Z,24.38
2022-11-30T02:21:57.258Z,26.52
2022-11-30T02:24:49.071Z,25.52
2022-11-30T02:27:38.199Z,24.65
2022-11-30T02:30:13.593Z,24.55
2022-11-30T02:32:49.597Z,22.80
2022-11-30T02:35:24.923Z,22.95
2022-11-30T02:40:26.589Z,22.92
2022-11-30T02:42:59.781Z,24.92
2022-11-30T02:45:39.618Z,26.42
2022-11-30T02:48:11.866Z,24.90
2022-11-30T02:50:47.246Z,26.15
2022-11-30T02:53:17.592Z,26.13
2022-11-30T02:55:46.285Z,24.98
2022-11-30T02:58:18.047Z,25.50
2022-11-30T03:00:51.386Z,26.70
2022-11-30T03:03:20.926Z,26.48
2022-11-30T03:05:49.548Z,25.38
2022-11-30T03:08:18.751Z,26.75
2022-11-30T03:10:52.062Z,26.10
2022-11-30T03:13:20.454Z,26.15
2022-11-30T03:15:51.977Z,26.00
2022-11-30T03:18:23.225Z,28.00
2022-11-30T03:20:52.132Z,27.13
2022-11-30T03:23:21.639Z,26.75
2022-11-30T03:25:50.906Z,25.60
2022-11-30T03:28:19.454Z,25.25
2022-11-30T03:30:52.969Z,26.65
2022-11-30T03:33:22.199Z,25.75
2022-11-30T03:36:03.703Z,27.00
2022-11-30T03:38:33.176Z,25.77
2022-11-30T03:41:03.268Z,27.27
2022-11-30T03:43:31.639Z,27.52
2022-11-30T03:46:03.670Z,27.05
2022-11-30T03:48:32.620Z,28.00
2022-11-30T03:51:01.644Z,27.58
2022-11-30T03:53:30.271Z,27.40
2022-11-30T03:56:02.162Z,27.42
2022-11-30T03:58:32.382Z,28.63
2022-11-30T04:01:17.999Z,28.38
2022-11-30T04:06:16.565Z,25.17
2022-11-30T04:08:45.962Z,26.45
2022-11-30T04:11:16.252Z,28.40
2022-11-30T04:13:47.254Z,27.67
2022-11-30T04:16:18.129Z,26.92
2022-11-30T04:18:47.813Z,26.90
2022-11-30T04:21:18.480Z,27.75
2022-11-30T04:23:48.210Z,27.40
2022-11-30T04:26:19.250Z,28.15
2022-11-30T04:28:50.861Z,27.00
2022-11-30T04:31:21.617Z,26.58
2022-11-30T04:33:53.709Z,25.42
2022-11-30T04:36:25.148Z,25.73
2022-11-30T04:38:53.424Z,28.33
2022-11-30T04:41:22.895Z,26.67
2022-11-30T04:43:52.965Z,26.13
2022-11-30T04:46:25.069Z,27.13
2022-11-30T04:48:54.635Z,26.42
2022-11-30T04:51:23.004Z,25.42
2022-11-30T04:53:52.912Z,26.92
2022-11-30T04:56:21.595Z,26.58
2022-11-30T04:58:50.422Z,26.60
2022-11-30T05:01:18.964Z,26.35
2022-11-30T05:03:49.830Z,27.02
2022-11-30T05:06:21.863Z,27.00
2022-11-30T05:08:51.068Z,26.83
2022-11-30T05:11:22.026Z,25.95
2022-11-30T05:13:52.219Z,27.35
2022-11-30T05:16:24.451Z,25.75
2022-11-30T05:18:55.526Z,29.48
2022-11-30T05:21:25.053Z,26.83
2022-11-30T05:23:54.554Z,27.48
2022-11-30T05:26:23.419Z,27.55
2022-11-30T05:28:52.420Z,27.35
2022-11-30T05:31:21.718Z,28.70
2022-11-30T05:33:54.036Z,27.30
2022-11-30T05:36:23.765Z,27.83
2022-11-30T05:38:55.758Z,28.05
2022-11-30T05:41:32.710Z,26.98
2022-11-30T05:44:06.574Z,26.50
2022-11-30T05:46:40.690Z,26.27
2022-11-30T05:49:11.801Z,27.52
2022-11-30T05:51:44.135Z,28.17
2022-11-30T05:54:13.509Z,27.75
2022-11-30T05:56:42.328Z,27.88
2022-11-30T05:59:12.506Z,28.30
2022-11-30T06:01:42.977Z,28.63
2022-11-30T06:04:15.930Z,28.90
2022-11-30T06:06:44.786Z,29.10
2022-11-30T06:09:16.548Z,29.08
2022-11-30T06:11:46.718Z,30.70
2022-11-30T06:14:16.126Z,29.23
2022-11-30T06:16:45.591Z,28.80
2022-11-30T06:19:15.954Z,29.70
2022-11-30T06:21:49.211Z,29.80
2022-11-30T06:24:23.749Z,30.02
2022-11-30T06:26:53.100Z,31.00
2022-11-30T06:29:26.313Z,30.08
2022-11-30T06:31:56.147Z,29.27
2022-11-30T06:34:39.417Z,30.33
2022-11-30T06:37:09.618Z,31.00
2022-11-30T06:42:31.589Z,29.55
2022-11-30T06:45:01.982Z,30.60
2022-11-30T06:47:32.252Z,30.00
2022-11-30T06:50:06.911Z,31.60
2022-11-30T06:52:35.912Z,31.77
2022-11-30T06:55:08.486Z,29.98
2022-11-30T06:57:37.319Z,31.45
2022-11-30T07:00:09.500Z,30.40
2022-11-30T07:02:39.713Z,28.52
2022-11-30T07:05:12.726Z,28.95
2022-11-30T07:07:42.986Z,30.02
2022-11-30T07:10:19.883Z,31.75
2022-11-30T07:12:48.986Z,32.78
2022-11-30T07:15:17.978Z,31.02
2022-11-30T07:17:47.197Z,32.33
2022-11-30T07:20:23.408Z,33.10
2022-11-30T07:23:20.488Z,30.30
2022-11-30T07:26:07.609Z,29.92
2022-11-30T07:28:37.522Z,31.98
2022-11-30T07:31:20.838Z,31.48
2022-11-30T07:33:50.831Z,31.67
2022-11-30T07:36:25.521Z,32.08
2022-11-30T07:38:54.886Z,37.85
2022-11-30T07:41:24.534Z,36.45
2022-11-30T07:43:54.462Z,36.58
2022-11-30T07:46:24.149Z,33.88
2022-11-30T07:48:53.737Z,32.30
2022-11-30T07:51:24.447Z,29.65
2022-11-30T07:53:53.557Z,29.25
2022-11-30T07:56:22.857Z,29.88
2022-11-30T07:58:56.537Z,31.33
2022-11-30T08:01:29.181Z,30.95
2022-11-30T08:03:58.853Z,31.50
2022-11-30T08:06:32.297Z,41.97
2022-11-30T08:09:04.290Z,35.22
2022-11-30T08:11:37.125Z,32.60
2022-11-30T08:14:07.295Z,32.25
2022-11-30T08:16:39.753Z,33.25
2022-11-30T08:19:11.299Z,33.17
2022-11-30T08:21:46.888Z,31.83
2022-11-30T08:24:15.609Z,33.65
2022-11-30T08:26:44.308Z,32.78
2022-11-30T08:29:12.790Z,33.58
2022-11-30T08:31:43.133Z,33.13
2022-11-30T08:34:14.597Z,33.70
2022-11-30T08:36:47.216Z,36.95
2022-11-30T08:39:20.146Z,32.80
2022-11-30T08:41:49.143Z,37.42
2022-11-30T08:44:18.621Z,36.58
2022-11-30T08:46:52.133Z,39.17
2022-11-30T08:49:24.697Z,36.47
2022-11-30T08:54:50.389Z,36.70
2022-11-30T08:57:22.525Z,37.58
2022-11-30T08:59:51.751Z,38.88
2022-11-30T09:02:20.879Z,36.50
2022-11-30T09:04:51.900Z,39.30
2022-11-30T09:07:22.243Z,37.75
2022-11-30T09:09:51.508Z,40.63
2022-11-30T09:12:20.678Z,39.20
2022-11-30T09:14:57.348Z,42.45
2022-11-30T09:17:28.607Z,40.47
2022-11-30T09:19:57.382Z,40.72
2022-11-30T09:22:31.305Z,40.38
2022-11-30T09:24:59.995Z,40.47
2022-11-30T09:27:32.781Z,39.20
2022-11-30T09:30:05.559Z,40.92
2022-11-30T09:32:34.259Z,39.75
2022-11-30T09:35:03.612Z,39.88
2022-11-30T09:37:39.092Z,41.03
2022-11-30T09:40:11.404Z,39.88
2022-11-30T09:42:54.805Z,40.95
2022-11-30T09:45:30.665Z,39.65
2022-11-30T09:48:31.143Z,38.85
2022-11-30T09:51:27.423Z,36.85
2022-11-30T09:54:06.913Z,37.60
2022-11-30T09:56:41.161Z,37.95
2022-11-30T09:59:20.610Z,38.10
2022-11-30T10:01:56.939Z,37.72
2022-11-30T10:04:31.997Z,36.38
2022-11-30T10:07:17.510Z,36.25
2022-11-30T10:10:31.555Z,33.13
2022-11-30T10:13:02.561Z,33.25
2022-11-30T10:15:54.626Z,32.10
2022-11-30T10:18:46.461Z,31.83
2022-11-30T10:21:33.810Z,31.00
2022-11-30T10:24:25.843Z,32.20
2022-11-30T10:27:02.669Z,31.95
2022-11-30T10:29:39.912Z,30.35
2022-11-30T10:32:23.514Z,30.83
2022-11-30T10:35:04.651Z,30.52
2022-11-30T10:37:42.881Z,30.10
2022-11-30T10:40:18.901Z,30.20
2022-11-30T10:42:55.465Z,29.25
2022-11-30T10:45:29.108Z,31.15
2022-11-30T10:48:05.640Z,29.08
2022-11-30T10:50:35.969Z,30.15
2022-11-30T10:53:09.134Z,28.67
2022-11-30T10:55:42.702Z,28.77
2022-11-30T10:58:23.853Z,29.63
2022-11-30T11:01:06.903Z,27.63
2022-11-30T11:03:36.989Z,27.08
2022-11-30T11:06:21.305Z,28.52
2022-11-30T11:08:56.128Z,25.60
2022-11-30T11:11:34.760Z,24.00
2022-11-30T11:14:20.842Z,25.05
2022-11-30T11:16:58.142Z,23.73
2022-11-30T11:19:38.295Z,23.80
2022-11-30T11:22:19.798Z,23.00
2022-11-30T11:24:58.289Z,22.50
2022-11-30T11:27:31.104Z,24.05
2022-11-30T11:30:13.850Z,22.30
2022-11-30T11:32:58.274Z,22.27
2022-11-30T11:35:46.886Z,20.88
2022-11-30T11:38:28.576Z,19.52
2022-11-30T11:41:04.274Z,19.58
2022-11-30T11:43:36.425Z,19.85
2022-11-30T11:46:15.072Z,20.08
2022-11-30T11:48:58.876Z,21.17
2022-11-30T11:51:34.916Z,19.77
2022-11-30T11:54:17.626Z,19.88
2022-11-30T11:56:47.222Z,19.17
2022-11-30T11:59:25.789Z,19.42
2022-11-30T12:02:06.656Z,20.85
2022-11-30T12:04:46.167Z,20.02
2022-11-30T12:07:27.176Z,19.60
2022-11-30T12:10:51.345Z,19.75
2022-11-30T12:13:25.004Z,19.90
2022-11-30T12:16:10.537Z,19.52
2022-11-30T12:18:51.615Z,21.60
2022-11-30T12:21:36.591Z,21.58
2022-11-30T12:24:40.144Z,22.02
2022-11-30T12:27:22.460Z,20.35
2022-11-30T12:30:10.194Z,19.10
2022-11-30T12:33:05.935Z,21.85
2022-11-30T12:35:48.531Z,22.08
2022-11-30T12:38:32.332Z,21.77
2022-11-30T12:41:28.227Z,20.23
2022-11-30T12:44:12.111Z,20.65
2022-11-30T12:46:55.625Z,18.85
2022-11-30T12:49:42.059Z,19.48
2022-11-30T12:52:33.711Z,19.45
2022-11-30T12:55:17.257Z,20.80
2022-11-30T12:57:56.720Z,20.10
2022-11-30T13:00:31.079Z,19.65
2022-11-30T13:03:36.227Z,20.33
2022-11-30T13:06:16.197Z,19.65
2022-11-30T13:09:03.037Z,19.42
2022-11-30T13:11:39.857Z,19.77
2022-11-30T13:14:18.091Z,20.65
2022-11-30T13:16:49.755Z,21.02
2022-11-30T13:19:49.295Z,21.27
2022-11-30T13:22:28.517Z,20.60
2022-11-30T13:25:19.545Z,20.40
2022-11-30T13:27:59.091Z,22.65
2022-11-30T13:30:44.275Z,22.60
2022-11-30T13:33:49.418Z,23.17
2022-11-30T13:36:44.102Z,21.50
2022-11-30T13:39:25.490Z,22.23
2022-11-30T13:42:39.805Z,23.40
2022-11-30T13:45:34.025Z,22.55
2022-11-30T13:48:21.964Z,22.65
2022-11-30T13:50:52.395Z,21.88
2022-11-30T13:53:26.897Z,23.65
2022-11-30T13:56:09.591Z,22.92
2022-11-30T13:59:36.294Z,22.85
2022-11-30T14:03:01.795Z,24.13
2022-11-30T14:05:44.209Z,23.58
2022-11-30T14:08:34.145Z,23.23
2022-11-30T14:11:38.172Z,24.83
2022-11-30T14:14:49.073Z,24.13
2022-11-30T14:17:27.980Z,24.95
2022-11-30T14:20:10.460Z,24.27
2022-11-30T14:22:45.122Z,25.33
2022-11-30T14:25:16.666Z,27.27
2022-11-30T14:27:46.459Z,26.73
2022-11-30T14:30:23.605Z,25.90
2022-11-30T14:33:05.908Z,25.98
2022-11-30T14:35:40.281Z,26.67
2022-11-30T14:38:28.017Z,26.35
2022-11-30T14:40:59.905Z,25.73
2022-11-30T14:43:31.087Z,25.52
2022-11-30T14:46:09.114Z,25.08
2022-11-30T14:48:39.890Z,24.17
2022-11-30T14:51:14.234Z,24.73
2022-11-30T14:53:54.253Z,24.73
2022-11-30T14:56:31.190Z,25.02
2022-11-30T14:59:28.221Z,23.55
2022-11-30T15:02:12.035Z,23.75
2022-11-30T15:04:43.000Z,23.75
2022-11-30T15:07:17.479Z,23.05
2022-11-30T15:10:01.757Z,24.05
2022-11-30T15:12:36.009Z,22.95
2022-11-30T15:15:15.578Z,22.98
2022-11-30T15:18:09.325Z,23.10
2022-11-30T15:20:46.482Z,24.33
2022-11-30T15:23:25.538Z,23.40
2022-11-30T15:26:04.553Z,23.50
2022-11-30T15:28:42.908Z,25.65
2022-11-30T15:31:21.847Z,24.30
2022-11-30T15:33:56.333Z,23.55
2022-11-30T15:36:33.476Z,24.83
2022-11-30T15:39:10.593Z,24.00
2022-11-30T15:44:44.292Z,25.38
2022-11-30T15:47:33.953Z,26.67
2022-11-30T15:50:25.582Z,25.50
2022-11-30T15:52:55.732Z,27.13
2022-11-30T15:55:46.449Z,28.23
2022-11-30T15:58:33.407Z,27.58
2022-11-30T16:01:19.008Z,29.60
2022-11-30T16:06:50.465Z,27.25
2022-11-30T16:09:24.373Z,29.73
2022-11-30T16:11:58.370Z,30.58
2022-11-30T16:14:32.254Z,32.00
2022-11-30T16:17:08.784Z,30.95
2022-11-30T16:19:40.919Z,31.35
2022-11-30T16:22:14.717Z,31.02
2022-11-30T16:24:46.699Z,32.00
2022-11-30T16:27:19.519Z,32.08
2022-11-30T16:29:52.596Z,31.38
2022-11-30T16:32:22.310Z,30.80
2022-11-30T16:34:51.560Z,33.15
2022-11-30T16:37:22.713Z,34.15
2022-11-30T16:39:52.532Z,35.95
2022-11-30T16:42:21.597Z,35.80
2022-11-30T16:44:51.661Z,37.92
2022-11-30T16:47:35.899Z,40.28
2022-11-30T16:50:23.506Z,47.05
2022-11-30T17:04:48.373Z,51.20
2022-11-30T17:07:19.596Z,47.25
2022-11-30T17:10:03.689Z,46.08
2022-11-30T17:15:44.217Z,49.72
2022-11-30T17:21:22.705Z,57.38
2022-11-30T17:29:51.422Z,44.35
2022-11-30T17:32:34.231Z,48.90
2022-11-30T17:44:29.298Z,43.80
2022-11-30T17:50:42.657Z,47.83
2022-11-30T17:53:19.345Z,47.55
2022-11-30T17:55:49.528Z,40.40
2022-11-30T17:58:19.530Z,46.03
2022-11-30T18:00:50.302Z,47.35
2022-11-30T18:03:21.935Z,46.75
2022-11-30T18:05:54.496Z,47.45
2022-11-30T18:08:25.026Z,52.85
2022-11-30T18:10:56.061Z,62.75
2022-11-30T18:13:26.592Z,51.15
2022-11-30T18:15:58.766Z,55.42
2022-11-30T18:18:28.873Z,53.88
2022-11-30T18:21:14.565Z,51.28
2022-11-30T18:26:17.559Z,50.17
2022-11-30T18:28:47.821Z,52.72
2022-11-30T18:31:17.865Z,53.88
2022-11-30T18:33:48.862Z,51.22
2022-11-30T18:36:25.015Z,47.90
2022-11-30T18:39:11.846Z,50.45
2022-11-30T18:44:13.240Z,46.67
2022-11-30T18:46:46.397Z,54.95
2022-11-30T18:49:19.473Z,60.03
2022-11-30T18:51:52.182Z,59.53
2022-11-30T18:54:26.489Z,56.28
2022-11-30T18:56:58.401Z,54.08
2022-11-30T18:59:30.186Z,47.53
2022-11-30T19:02:01.162Z,45.97
2022-11-30T19:04:31.722Z,44.67
2022-11-30T19:07:03.812Z,44.75
2022-11-30T19:09:35.782Z,44.90
2022-11-30T19:12:05.884Z,45.17
2022-11-30T19:14:38.390Z,44.30
2022-11-30T19:17:23.313Z,43.20
2022-11-30T19:19:56.572Z,41.57
2022-11-30T19:22:46.431Z,44.28
2022-11-30T19:25:18.870Z,43.58
2022-11-30T19:27:51.458Z,43.00
2022-11-30T19:30:28.667Z,44.45
2022-11-30T19:32:59.456Z,53.15
2022-11-30T19:35:30.145Z,52.13
2022-11-30T19:38:05.561Z,51.67
2022-11-30T19:40:52.469Z,51.40
2022-11-30T19:43:22.369Z,50.30
2022-11-30T19:45:53.025Z,56.47
2022-11-30T19:51:42.506Z,56.95
2022-11-30T19:54:16.504Z,67.25
2022-11-30T19:56:50.153Z,64.43
2022-11-30T19:59:33.256Z,62.80
2022-11-30T20:02:12.081Z,61.28
2022-11-30T20:04:50.925Z,66.43
2022-11-30T20:07:28.842Z,54.50
2022-11-30T20:10:23.278Z,77.60
2022-11-30T20:13:10.099Z,74.85
2022-11-30T20:15:48.946Z,89.38
2022-11-30T20:18:27.626Z,65.80
2022-11-30T20:21:00.087Z,53.72
2022-11-30T20:23:44.875Z,58.78
2022-11-30T20:26:23.912Z,52.92
2022-11-30T20:28:55.840Z,55.17
2022-11-30T20:31:26.798Z,49.17
2022-11-30T20:33:56.285Z,47.47
2022-11-30T20:36:25.222Z,48.97
2022-11-30T20:38:56.259Z,48.60
2022-11-30T20:41:26.583Z,49.78
2022-11-30T20:44:02.409Z,49.35
2022-11-30T20:46:36.649Z,49.72
2022-11-30T20:49:14.737Z,49.65
2022-11-30T20:51:43.691Z,50.22
2022-11-30T20:54:14.535Z,49.85
2022-11-30T20:56:50.931Z,51.20
2022-11-30T20:59:26.998Z,51.03
2022-11-30T21:01:58.865Z,51.00
2022-11-30T21:04:28.783Z,51.03
2022-11-30T21:07:03.201Z,51.95
2022-11-30T21:09:33.309Z,50.27
2022-11-30T21:12:04.189Z,50.97
2022-11-30T21:14:34.449Z,50.90
2022-11-30T21:17:09.613Z,50.35
2022-11-30T21:19:44.610Z,49.10
2022-11-30T21:22:14.090Z,48.70
2022-11-30T21:24:44.315Z,49.58
2022-11-30T21:27:14.870Z,49.03
2022-11-30T21:29:47.197Z,49.97
2022-11-30T21:32:17.022Z,50.80
2022-11-30T21:34:46.246Z,47.35
2022-11-30T21:37:16.455Z,50.78
2022-11-30T21:39:46.752Z,49.05
2022-11-30T21:42:16.173Z,48.15
2022-11-30T21:44:46.618Z,47.60
2022-11-30T21:47:17.820Z,48.38
2022-11-30T21:49:46.193Z,48.53
2022-11-30T21:52:15.744Z,47.55
2022-11-30T21:54:48.714Z,50.95
2022-11-30T21:57:17.922Z,49.47
2022-11-30T21:59:50.841Z,49.17
2022-11-30T22:02:22.361Z,48.30
2022-11-30T22:04:51.394Z,47.92
2022-11-30T22:07:31.710Z,49.70
2022-11-30T22:10:02.941Z,49.00
2022-11-30T22:12:32.807Z,49.22
2022-11-30T22:15:05.209Z,50.45
2022-11-30T22:17:35.878Z,51.05
2022-11-30T22:20:08.308Z,51.10
2022-11-30T22:22:42.334Z,48.88
2022-11-30T22:25:13.369Z,51.40
2022-11-30T22:27:45.647Z,49.30
2022-11-30T22:30:15.588Z,50.85
2022-11-30T22:32:44.784Z,48.92
2022-11-30T22:35:13.841Z,48.70
2022-11-30T22:37:43.177Z,51.75
2022-11-30T22:40:17.003Z,50.88
2022-11-30T22:42:46.510Z,47.88
2022-11-30T22:45:17.615Z,47.65
2022-11-30T22:47:46.900Z,48.15
2022-11-30T22:50:16.265Z,45.33
2022-11-30T22:53:02.561Z,46.97
2022-11-30T22:55:38.055Z,44.17
2022-11-30T22:58:08.677Z,45.78
2022-11-30T23:00:37.893Z,46.33
2022-11-30T23:03:08.413Z,47.85
2022-11-30T23:05:37.989Z,46.25
2022-11-30T23:08:08.075Z,48.15
2022-11-30T23:10:40.576Z,47.05
2022-11-30T23:13:15.096Z,48.13
2022-11-30T23:15:44.545Z,50.05
2022-11-30T23:18:14.111Z,46.53
2022-11-30T23:20:43.531Z,49.58
2022-11-30T23:23:12.504Z,49.20
2022-11-30T23:25:42.720Z,47.65
2022-11-30T23:28:17.083Z,47.35
2022-11-30T23:30:45.578Z,48.75
2022-11-30T23:33:15.147Z,47.10
2022-11-30T23:35:45.770Z,48.97
2022-11-30T23:38:15.284Z,47.00
2022-11-30T23:40:45.749Z,48.38
2022-11-30T23:43:15.295Z,48.63
2022-11-30T23:45:45.204Z,48.38
2022-11-30T23:48:14.509Z,47.08
2022-11-30T23:50:52.858Z,45.35
2022-11-30T23:53:22.261Z,46.92
2022-11-30T23:55:54.250Z,46.92
2022-11-30T23:58:26.667Z,47.15
